sensor_id;sensor_type;location;lat;lon;timestamp;temperature;humidity
22908;DHT22;11620;50.050;8.690;2024-02-23T00:00:44;6.30;99.90
22908;DHT22;11620;50.050;8.690;2024-02-23T00:03:30;6.30;99.90
22908;DHT22;11620;50.050;8.690;2024-02-23T00:06:17;6.20;99.90
22908;DHT22;11620;50.050;8.690;2024-02-23T00:09:04;6.20;99.90
22908;DHT22;11620;50.050;8.690;2024-02-23T00:11:50;6.20;99.90
22908;DHT22;11620;50.050;8.690;2024-02-23T00:14:37;6.10;99.90
22908;DHT22;11620;50.050;8.690;2024-02-23T00:17:23;6.10;99.90
22908;DHT22;11620;50.050;8.690;2024-02-23T00:20:10;6.10;99.90
22908;DHT22;11620;50.050;8.690;2024-02-23T00:22:57;6.00;99.90
22908;DHT22;11620;50.050;8.690;2024-02-23T00:25:43;6.00;99.90
22908;DHT22;11620;50.050;8.690;2024-02-23T00:28:30;6.00;99.90
22908;DHT22;11620;50.050;8.690;2024-02-23T00:31:16;5.90;99.90
22908;DHT22;11620;50.050;8.690;2024-02-23T00:34:02;5.90;99.90
22908;DHT22;11620;50.050;8.690;2024-02-23T00:36:49;5.90;99.90
22908;DHT22;11620;50.050;8.690;2024-02-23T00:39:35;5.90;99.90
22908;DHT22;11620;50.050;8.690;2024-02-23T00:42:22;5.80;99.90
22908;DHT22;11620;50.050;8.690;2024-02-23T00:45:09;5.70;99.90
22908;DHT22;11620;50.050;8.690;2024-02-23T00:47:55;5.70;99.90
22908;DHT22;11620;50.050;8.690;2024-02-23T00:50:43;5.70;99.90
22908;DHT22;11620;50.050;8.690;2024-02-23T00:53:33;5.80;99.90
22908;DHT22;11620;50.050;8.690;2024-02-23T00:56:19;5.60;99.90
22908;DHT22;11620;50.050;8.690;2024-02-23T00:59:05;5.60;99.90
22908;DHT22;11620;50.050;8.690;2024-02-23T01:01:52;5.60;99.90
22908;DHT22;11620;50.050;8.690;2024-02-23T01:04:38;5.60;99.90
22908;DHT22;11620;50.050;8.690;2024-02-23T01:07:24;5.50;99.90
22908;DHT22;11620;50.050;8.690;2024-02-23T01:10:11;5.50;99.90
22908;DHT22;11620;50.050;8.690;2024-02-23T01:12:57;5.50;99.90
22908;DHT22;11620;50.050;8.690;2024-02-23T01:15:43;5.50;99.90
22908;DHT22;11620;50.050;8.690;2024-02-23T01:18:30;5.40;99.90
22908;DHT22;11620;50.050;8.690;2024-02-23T01:21:16;5.40;99.90
22908;DHT22;11620;50.050;8.690;2024-02-23T01:24:03;5.50;99.90
22908;DHT22;11620;50.050;8.690;2024-02-23T01:26:50;5.30;99.90
22908;DHT22;11620;50.050;8.690;2024-02-23T01:29:36;5.40;99.90
22908;DHT22;11620;50.050;8.690;2024-02-23T01:32:23;5.30;99.90
22908;DHT22;11620;50.050;8.690;2024-02-23T01:35:09;5.30;99.90
22908;DHT22;11620;50.050;8.690;2024-02-23T01:37:55;5.30;99.90
22908;DHT22;11620;50.050;8.690;2024-02-23T01:40:42;5.30;99.90
22908;DHT22;11620;50.050;8.690;2024-02-23T01:43:28;5.20;99.90
22908;DHT22;11620;50.050;8.690;2024-02-23T01:46:14;5.30;99.90
22908;DHT22;11620;50.050;8.690;2024-02-23T01:49:06;5.30;99.90
22908;DHT22;11620;50.050;8.690;2024-02-23T01:51:54;5.20;99.90
22908;DHT22;11620;50.050;8.690;2024-02-23T01:54:40;5.20;99.90
22908;DHT22;11620;50.050;8.690;2024-02-23T01:57:27;5.20;99.90
22908;DHT22;11620;50.050;8.690;2024-02-23T02:00:17;5.00;99.90
22908;DHT22;11620;50.050;8.690;2024-02-23T02:03:04;5.00;99.90
22908;DHT22;11620;50.050;8.690;2024-02-23T02:05:51;4.90;99.90
22908;DHT22;11620;50.050;8.690;2024-02-23T02:08:38;4.90;99.90
22908;DHT22;11620;50.050;8.690;2024-02-23T02:11:24;4.80;99.90
22908;DHT22;11620;50.050;8.690;2024-02-23T02:14:11;4.90;99.90
22908;DHT22;11620;50.050;8.690;2024-02-23T02:16:57;4.70;99.90
22908;DHT22;11620;50.050;8.690;2024-02-23T02:19:48;4.80;99.90
22908;DHT22;11620;50.050;8.690;2024-02-23T02:22:34;4.90;99.90
22908;DHT22;11620;50.050;8.690;2024-02-23T02:25:21;4.90;99.90
22908;DHT22;11620;50.050;8.690;2024-02-23T02:28:07;4.80;99.90
22908;DHT22;11620;50.050;8.690;2024-02-23T02:30:54;4.80;99.90
22908;DHT22;11620;50.050;8.690;2024-02-23T02:33:41;4.80;99.90
22908;DHT22;11620;50.050;8.690;2024-02-23T02:36:27;4.60;99.90
22908;DHT22;11620;50.050;8.690;2024-02-23T02:39:13;4.60;99.90
22908;DHT22;11620;50.050;8.690;2024-02-23T02:41:59;4.70;99.90
22908;DHT22;11620;50.050;8.690;2024-02-23T02:44:46;4.70;99.90
22908;DHT22;11620;50.050;8.690;2024-02-23T02:47:32;4.60;99.90
22908;DHT22;11620;50.050;8.690;2024-02-23T02:50:18;4.60;99.90
22908;DHT22;11620;50.050;8.690;2024-02-23T02:53:05;4.60;99.90
22908;DHT22;11620;50.050;8.690;2024-02-23T02:55:51;4.50;99.90
22908;DHT22;11620;50.050;8.690;2024-02-23T02:58:37;4.40;99.90
22908;DHT22;11620;50.050;8.690;2024-02-23T03:01:24;4.30;99.90
22908;DHT22;11620;50.050;8.690;2024-02-23T03:04:10;4.30;99.90
22908;DHT22;11620;50.050;8.690;2024-02-23T03:06:56;4.20;99.90
22908;DHT22;11620;50.050;8.690;2024-02-23T03:09:43;4.30;99.90
22908;DHT22;11620;50.050;8.690;2024-02-23T03:12:29;4.30;99.90
22908;DHT22;11620;50.050;8.690;2024-02-23T03:15:15;4.20;99.90
22908;DHT22;11620;50.050;8.690;2024-02-23T03:18:02;4.20;99.90
22908;DHT22;11620;50.050;8.690;2024-02-23T03:20:49;4.10;99.90
22908;DHT22;11620;50.050;8.690;2024-02-23T03:23:38;4.00;99.90
22908;DHT22;11620;50.050;8.690;2024-02-23T03:26:24;4.00;99.90
22908;DHT22;11620;50.050;8.690;2024-02-23T03:29:11;3.90;99.90
22908;DHT22;11620;50.050;8.690;2024-02-23T03:31:57;3.90;99.90
22908;DHT22;11620;50.050;8.690;2024-02-23T03:34:43;4.00;99.90
22908;DHT22;11620;50.050;8.690;2024-02-23T03:37:30;4.00;99.90
22908;DHT22;11620;50.050;8.690;2024-02-23T03:40:16;4.00;99.90
22908;DHT22;11620;50.050;8.690;2024-02-23T03:43:05;4.00;99.90
22908;DHT22;11620;50.050;8.690;2024-02-23T03:45:51;3.90;99.90
22908;DHT22;11620;50.050;8.690;2024-02-23T03:48:38;3.80;99.90
22908;DHT22;11620;50.050;8.690;2024-02-23T03:51:24;3.80;99.90
22908;DHT22;11620;50.050;8.690;2024-02-23T03:54:11;3.70;99.90
22908;DHT22;11620;50.050;8.690;2024-02-23T03:56:57;3.80;99.90
22908;DHT22;11620;50.050;8.690;2024-02-23T03:59:53;3.70;99.90
22908;DHT22;11620;50.050;8.690;2024-02-23T04:02:40;3.70;99.90
22908;DHT22;11620;50.050;8.690;2024-02-23T04:05:26;3.70;99.90
22908;DHT22;11620;50.050;8.690;2024-02-23T04:08:12;3.60;99.90
22908;DHT22;11620;50.050;8.690;2024-02-23T04:10:59;3.50;99.90
22908;DHT22;11620;50.050;8.690;2024-02-23T04:13:45;3.50;99.90
22908;DHT22;11620;50.050;8.690;2024-02-23T04:16:31;3.60;99.90
22908;DHT22;11620;50.050;8.690;2024-02-23T04:19:18;3.60;99.90
22908;DHT22;11620;50.050;8.690;2024-02-23T04:22:06;3.60;99.90
22908;DHT22;11620;50.050;8.690;2024-02-23T04:24:54;3.60;99.90
22908;DHT22;11620;50.050;8.690;2024-02-23T04:27:41;3.70;99.90
22908;DHT22;11620;50.050;8.690;2024-02-23T04:30:27;3.70;99.90
22908;DHT22;11620;50.050;8.690;2024-02-23T04:33:13;3.60;99.90
22908;DHT22;11620;50.050;8.690;2024-02-23T04:36:00;3.60;99.90
22908;DHT22;11620;50.050;8.690;2024-02-23T04:38:46;3.60;99.90
22908;DHT22;11620;50.050;8.690;2024-02-23T04:41:32;3.60;99.90
22908;DHT22;11620;50.050;8.690;2024-02-23T04:44:19;3.50;99.90
22908;DHT22;11620;50.050;8.690;2024-02-23T04:47:05;3.60;99.90
22908;DHT22;11620;50.050;8.690;2024-02-23T04:49:52;3.50;99.90
22908;DHT22;11620;50.050;8.690;2024-02-23T04:52:38;3.40;99.90
22908;DHT22;11620;50.050;8.690;2024-02-23T04:55:24;3.50;99.90
22908;DHT22;11620;50.050;8.690;2024-02-23T04:58:11;3.60;99.90
22908;DHT22;11620;50.050;8.690;2024-02-23T05:00:58;3.50;99.90
22908;DHT22;11620;50.050;8.690;2024-02-23T05:03:44;3.40;99.90
22908;DHT22;11620;50.050;8.690;2024-02-23T05:06:31;3.40;99.90
22908;DHT22;11620;50.050;8.690;2024-02-23T05:09:17;3.40;99.90
22908;DHT22;11620;50.050;8.690;2024-02-23T05:12:03;3.40;99.90
22908;DHT22;11620;50.050;8.690;2024-02-23T05:14:50;3.50;99.90
22908;DHT22;11620;50.050;8.690;2024-02-23T05:17:36;3.50;99.90
22908;DHT22;11620;50.050;8.690;2024-02-23T05:20:22;3.50;99.90
22908;DHT22;11620;50.050;8.690;2024-02-23T05:23:09;3.40;99.90
22908;DHT22;11620;50.050;8.690;2024-02-23T05:25:55;3.50;99.90
22908;DHT22;11620;50.050;8.690;2024-02-23T05:28:41;3.40;99.90
22908;DHT22;11620;50.050;8.690;2024-02-23T05:31:53;3.10;99.90
22908;DHT22;11620;50.050;8.690;2024-02-23T05:34:39;3.00;99.90
22908;DHT22;11620;50.050;8.690;2024-02-23T05:37:26;3.00;99.90
22908;DHT22;11620;50.050;8.690;2024-02-23T05:40:13;3.10;99.90
22908;DHT22;11620;50.050;8.690;2024-02-23T05:42:59;3.10;99.90
22908;DHT22;11620;50.050;8.690;2024-02-23T05:45:45;3.00;99.90
22908;DHT22;11620;50.050;8.690;2024-02-23T05:48:32;2.90;99.90
22908;DHT22;11620;50.050;8.690;2024-02-23T05:51:18;3.00;99.90
22908;DHT22;11620;50.050;8.690;2024-02-23T05:54:05;3.10;99.90
22908;DHT22;11620;50.050;8.690;2024-02-23T05:56:52;3.10;99.90
22908;DHT22;11620;50.050;8.690;2024-02-23T05:59:38;3.00;99.90
22908;DHT22;11620;50.050;8.690;2024-02-23T06:02:24;3.00;99.90
22908;DHT22;11620;50.050;8.690;2024-02-23T06:05:12;3.00;99.90
22908;DHT22;11620;50.050;8.690;2024-02-23T06:08:01;3.10;99.90
22908;DHT22;11620;50.050;8.690;2024-02-23T06:10:48;3.00;99.90
22908;DHT22;11620;50.050;8.690;2024-02-23T06:13:34;3.10;99.90
22908;DHT22;11620;50.050;8.690;2024-02-23T06:16:20;3.00;99.90
22908;DHT22;11620;50.050;8.690;2024-02-23T06:19:06;3.10;99.90
22908;DHT22;11620;50.050;8.690;2024-02-23T06:21:53;3.10;99.90
22908;DHT22;11620;50.050;8.690;2024-02-23T06:24:39;3.20;99.90
22908;DHT22;11620;50.050;8.690;2024-02-23T06:27:25;3.10;99.90
22908;DHT22;11620;50.050;8.690;2024-02-23T06:30:13;3.20;99.90
22908;DHT22;11620;50.050;8.690;2024-02-23T06:33:00;3.20;99.90
22908;DHT22;11620;50.050;8.690;2024-02-23T06:35:46;3.30;99.90
22908;DHT22;11620;50.050;8.690;2024-02-23T06:38:32;3.20;99.90
22908;DHT22;11620;50.050;8.690;2024-02-23T06:41:19;3.30;99.90
22908;DHT22;11620;50.050;8.690;2024-02-23T06:44:05;3.20;99.90
22908;DHT22;11620;50.050;8.690;2024-02-23T06:46:52;3.20;99.90
22908;DHT22;11620;50.050;8.690;2024-02-23T06:49:45;3.20;99.90
22908;DHT22;11620;50.050;8.690;2024-02-23T06:52:32;3.20;99.90
22908;DHT22;11620;50.050;8.690;2024-02-23T06:55:19;3.20;99.90
22908;DHT22;11620;50.050;8.690;2024-02-23T06:58:05;3.30;99.90
22908;DHT22;11620;50.050;8.690;2024-02-23T07:00:53;3.40;99.90
22908;DHT22;11620;50.050;8.690;2024-02-23T07:03:39;3.40;99.90
22908;DHT22;11620;50.050;8.690;2024-02-23T07:06:28;3.40;99.90
22908;DHT22;11620;50.050;8.690;2024-02-23T07:09:17;3.50;99.90
22908;DHT22;11620;50.050;8.690;2024-02-23T07:12:04;3.50;99.90
22908;DHT22;11620;50.050;8.690;2024-02-23T07:14:50;3.60;99.90
22908;DHT22;11620;50.050;8.690;2024-02-23T07:17:36;3.50;99.90
22908;DHT22;11620;50.050;8.690;2024-02-23T07:20:23;3.60;99.90
22908;DHT22;11620;50.050;8.690;2024-02-23T07:23:09;3.50;99.90
22908;DHT22;11620;50.050;8.690;2024-02-23T07:25:56;3.70;99.90
22908;DHT22;11620;50.050;8.690;2024-02-23T07:28:42;3.80;99.90
22908;DHT22;11620;50.050;8.690;2024-02-23T07:31:28;3.90;99.90
22908;DHT22;11620;50.050;8.690;2024-02-23T07:34:14;3.90;99.90
22908;DHT22;11620;50.050;8.690;2024-02-23T07:37:01;3.80;99.90
22908;DHT22;11620;50.050;8.690;2024-02-23T07:39:47;3.80;99.90
22908;DHT22;11620;50.050;8.690;2024-02-23T07:42:33;3.80;99.90
22908;DHT22;11620;50.050;8.690;2024-02-23T07:45:21;3.80;99.90
22908;DHT22;11620;50.050;8.690;2024-02-23T07:48:07;3.80;99.90
22908;DHT22;11620;50.050;8.690;2024-02-23T07:50:54;3.90;99.90
22908;DHT22;11620;50.050;8.690;2024-02-23T07:53:41;4.10;99.90
22908;DHT22;11620;50.050;8.690;2024-02-23T07:56:27;4.00;99.90
22908;DHT22;11620;50.050;8.690;2024-02-23T07:59:13;4.00;99.90
22908;DHT22;11620;50.050;8.690;2024-02-23T08:02:00;4.00;99.90
22908;DHT22;11620;50.050;8.690;2024-02-23T08:04:46;4.10;99.90
22908;DHT22;11620;50.050;8.690;2024-02-23T08:07:33;4.30;99.90
22908;DHT22;11620;50.050;8.690;2024-02-23T08:10:20;4.30;99.90
22908;DHT22;11620;50.050;8.690;2024-02-23T08:13:07;4.30;99.90
22908;DHT22;11620;50.050;8.690;2024-02-23T08:15:54;4.30;99.90
22908;DHT22;11620;50.050;8.690;2024-02-23T08:18:40;4.40;99.90
22908;DHT22;11620;50.050;8.690;2024-02-23T08:21:27;4.40;99.90
22908;DHT22;11620;50.050;8.690;2024-02-23T08:24:13;4.40;99.90
22908;DHT22;11620;50.050;8.690;2024-02-23T08:26:59;4.60;99.90
22908;DHT22;11620;50.050;8.690;2024-02-23T08:29:46;4.50;99.90
22908;DHT22;11620;50.050;8.690;2024-02-23T08:32:32;4.50;99.90
22908;DHT22;11620;50.050;8.690;2024-02-23T08:35:21;4.40;99.90
22908;DHT22;11620;50.050;8.690;2024-02-23T08:38:08;4.50;99.90
22908;DHT22;11620;50.050;8.690;2024-02-23T08:40:55;4.50;99.90
22908;DHT22;11620;50.050;8.690;2024-02-23T08:43:41;4.50;99.90
22908;DHT22;11620;50.050;8.690;2024-02-23T08:46:27;4.30;99.90
22908;DHT22;11620;50.050;8.690;2024-02-23T08:49:14;4.10;99.90
22908;DHT22;11620;50.050;8.690;2024-02-23T08:52:00;4.20;99.90
22908;DHT22;11620;50.050;8.690;2024-02-23T08:54:48;4.30;99.90
22908;DHT22;11620;50.050;8.690;2024-02-23T08:57:34;4.30;99.90
22908;DHT22;11620;50.050;8.690;2024-02-23T09:00:21;4.30;99.90
22908;DHT22;11620;50.050;8.690;2024-02-23T09:03:07;4.40;99.90
22908;DHT22;11620;50.050;8.690;2024-02-23T09:05:53;4.40;99.90
22908;DHT22;11620;50.050;8.690;2024-02-23T09:08:40;4.40;99.90
22908;DHT22;11620;50.050;8.690;2024-02-23T09:11:27;4.40;99.90
22908;DHT22;11620;50.050;8.690;2024-02-23T09:14:13;4.40;99.90
22908;DHT22;11620;50.050;8.690;2024-02-23T09:16:59;4.40;99.90
22908;DHT22;11620;50.050;8.690;2024-02-23T09:19:46;4.40;99.90
22908;DHT22;11620;50.050;8.690;2024-02-23T09:22:32;4.50;99.90
22908;DHT22;11620;50.050;8.690;2024-02-23T09:25:19;4.50;99.90
22908;DHT22;11620;50.050;8.690;2024-02-23T09:28:06;4.50;99.90
22908;DHT22;11620;50.050;8.690;2024-02-23T09:30:53;4.50;99.90
22908;DHT22;11620;50.050;8.690;2024-02-23T09:33:39;4.70;99.90
22908;DHT22;11620;50.050;8.690;2024-02-23T09:36:25;4.70;99.90
22908;DHT22;11620;50.050;8.690;2024-02-23T09:39:12;4.90;99.90
22908;DHT22;11620;50.050;8.690;2024-02-23T09:41:58;4.70;99.90
22908;DHT22;11620;50.050;8.690;2024-02-23T09:44:44;4.90;99.90
22908;DHT22;11620;50.050;8.690;2024-02-23T09:47:32;4.80;99.90
22908;DHT22;11620;50.050;8.690;2024-02-23T09:50:21;4.80;99.90
22908;DHT22;11620;50.050;8.690;2024-02-23T09:53:09;4.90;99.90
22908;DHT22;11620;50.050;8.690;2024-02-23T09:55:59;4.80;99.90
22908;DHT22;11620;50.050;8.690;2024-02-23T09:58:47;4.80;99.90
22908;DHT22;11620;50.050;8.690;2024-02-23T10:01:35;5.00;99.90
22908;DHT22;11620;50.050;8.690;2024-02-23T10:04:24;5.10;99.90
22908;DHT22;11620;50.050;8.690;2024-02-23T10:07:15;5.20;99.90
22908;DHT22;11620;50.050;8.690;2024-02-23T10:10:02;5.10;99.90
22908;DHT22;11620;50.050;8.690;2024-02-23T10:12:50;5.20;99.90
22908;DHT22;11620;50.050;8.690;2024-02-23T10:15:36;5.20;99.90
22908;DHT22;11620;50.050;8.690;2024-02-23T10:18:22;5.30;99.90
22908;DHT22;11620;50.050;8.690;2024-02-23T10:21:09;5.40;99.90
22908;DHT22;11620;50.050;8.690;2024-02-23T10:23:55;5.30;99.90
22908;DHT22;11620;50.050;8.690;2024-02-23T10:26:42;5.40;99.90
22908;DHT22;11620;50.050;8.690;2024-02-23T10:29:28;5.80;99.90
22908;DHT22;11620;50.050;8.690;2024-02-23T10:32:15;6.20;99.90
22908;DHT22;11620;50.050;8.690;2024-02-23T10:35:02;6.60;99.90
22908;DHT22;11620;50.050;8.690;2024-02-23T10:37:50;7.10;99.90
22908;DHT22;11620;50.050;8.690;2024-02-23T10:40:39;7.50;99.90
22908;DHT22;11620;50.050;8.690;2024-02-23T10:43:36;7.40;99.90
22908;DHT22;11620;50.050;8.690;2024-02-23T10:46:25;7.50;99.90
22908;DHT22;11620;50.050;8.690;2024-02-23T10:49:13;7.20;99.90
22908;DHT22;11620;50.050;8.690;2024-02-23T10:52:01;7.00;99.90
22908;DHT22;11620;50.050;8.690;2024-02-23T10:54:49;6.90;99.90
22908;DHT22;11620;50.050;8.690;2024-02-23T10:57:36;6.90;99.90
22908;DHT22;11620;50.050;8.690;2024-02-23T11:00:23;7.50;99.90
22908;DHT22;11620;50.050;8.690;2024-02-23T11:03:10;7.40;99.90
22908;DHT22;11620;50.050;8.690;2024-02-23T11:05:57;6.90;99.90
22908;DHT22;11620;50.050;8.690;2024-02-23T11:08:43;7.00;99.90
22908;DHT22;11620;50.050;8.690;2024-02-23T11:11:32;6.80;99.90
22908;DHT22;11620;50.050;8.690;2024-02-23T11:14:29;6.70;99.90
22908;DHT22;11620;50.050;8.690;2024-02-23T11:17:20;6.50;99.90
22908;DHT22;11620;50.050;8.690;2024-02-23T11:20:07;6.40;99.90
22908;DHT22;11620;50.050;8.690;2024-02-23T11:22:54;6.50;99.90
22908;DHT22;11620;50.050;8.690;2024-02-23T11:25:40;6.60;99.90
22908;DHT22;11620;50.050;8.690;2024-02-23T11:28:27;6.20;99.90
22908;DHT22;11620;50.050;8.690;2024-02-23T11:31:20;6.30;99.90
22908;DHT22;11620;50.050;8.690;2024-02-23T11:34:08;6.30;99.90
22908;DHT22;11620;50.050;8.690;2024-02-23T11:36:56;6.40;99.90
22908;DHT22;11620;50.050;8.690;2024-02-23T11:39:44;6.10;99.90
22908;DHT22;11620;50.050;8.690;2024-02-23T11:42:31;6.00;99.90
22908;DHT22;11620;50.050;8.690;2024-02-23T11:45:18;5.80;99.90
22908;DHT22;11620;50.050;8.690;2024-02-23T11:48:05;5.90;99.90
22908;DHT22;11620;50.050;8.690;2024-02-23T11:50:52;5.70;99.90
22908;DHT22;11620;50.050;8.690;2024-02-23T11:53:38;5.70;99.90
22908;DHT22;11620;50.050;8.690;2024-02-23T11:56:25;6.00;99.90
22908;DHT22;11620;50.050;8.690;2024-02-23T11:59:11;6.30;99.90
22908;DHT22;11620;50.050;8.690;2024-02-23T12:01:59;6.60;99.90
22908;DHT22;11620;50.050;8.690;2024-02-23T12:04:45;6.50;99.90
22908;DHT22;11620;50.050;8.690;2024-02-23T12:07:32;6.40;99.90
22908;DHT22;11620;50.050;8.690;2024-02-23T12:10:19;6.10;99.90
22908;DHT22;11620;50.050;8.690;2024-02-23T12:13:05;6.30;99.90
22908;DHT22;11620;50.050;8.690;2024-02-23T12:15:53;6.30;99.90
22908;DHT22;11620;50.050;8.690;2024-02-23T12:18:39;6.40;99.90
22908;DHT22;11620;50.050;8.690;2024-02-23T12:21:25;6.40;99.90
22908;DHT22;11620;50.050;8.690;2024-02-23T12:24:12;7.00;99.90
22908;DHT22;11620;50.050;8.690;2024-02-23T12:26:58;7.20;99.90
22908;DHT22;11620;50.050;8.690;2024-02-23T12:29:54;7.70;99.90
22908;DHT22;11620;50.050;8.690;2024-02-23T12:32:40;8.40;99.90
22908;DHT22;11620;50.050;8.690;2024-02-23T12:35:27;7.90;99.90
22908;DHT22;11620;50.050;8.690;2024-02-23T12:38:13;7.40;99.90
22908;DHT22;11620;50.050;8.690;2024-02-23T12:41:01;7.10;99.90
22908;DHT22;11620;50.050;8.690;2024-02-23T12:43:48;7.20;99.90
22908;DHT22;11620;50.050;8.690;2024-02-23T12:46:34;7.30;99.90
22908;DHT22;11620;50.050;8.690;2024-02-23T12:49:21;7.40;99.90
22908;DHT22;11620;50.050;8.690;2024-02-23T12:52:07;7.40;99.90
22908;DHT22;11620;50.050;8.690;2024-02-23T12:54:53;7.20;99.90
22908;DHT22;11620;50.050;8.690;2024-02-23T12:57:40;7.00;99.90
22908;DHT22;11620;50.050;8.690;2024-02-23T13:00:26;6.90;99.90
22908;DHT22;11620;50.050;8.690;2024-02-23T13:03:12;6.80;99.90
22908;DHT22;11620;50.050;8.690;2024-02-23T13:05:59;6.70;99.90
22908;DHT22;11620;50.050;8.690;2024-02-23T13:08:46;6.50;99.90
22908;DHT22;11620;50.050;8.690;2024-02-23T13:11:33;6.50;99.90
22908;DHT22;11620;50.050;8.690;2024-02-23T13:14:19;6.30;99.90
22908;DHT22;11620;50.050;8.690;2024-02-23T13:17:06;6.40;99.90
22908;DHT22;11620;50.050;8.690;2024-02-23T13:19:52;6.40;99.90
22908;DHT22;11620;50.050;8.690;2024-02-23T13:22:38;6.40;99.90
22908;DHT22;11620;50.050;8.690;2024-02-23T13:25:25;6.50;99.90
22908;DHT22;11620;50.050;8.690;2024-02-23T13:28:11;6.50;99.90
22908;DHT22;11620;50.050;8.690;2024-02-23T13:30:58;6.60;99.90
22908;DHT22;11620;50.050;8.690;2024-02-23T13:33:44;6.40;99.90
22908;DHT22;11620;50.050;8.690;2024-02-23T13:36:31;6.30;99.90
22908;DHT22;11620;50.050;8.690;2024-02-23T13:39:17;6.50;99.90
22908;DHT22;11620;50.050;8.690;2024-02-23T13:42:04;6.70;99.90
22908;DHT22;11620;50.050;8.690;2024-02-23T13:44:51;7.00;99.90
22908;DHT22;11620;50.050;8.690;2024-02-23T13:47:37;7.30;99.90
22908;DHT22;11620;50.050;8.690;2024-02-23T13:50:24;7.40;99.90
22908;DHT22;11620;50.050;8.690;2024-02-23T13:53:11;7.90;99.90
22908;DHT22;11620;50.050;8.690;2024-02-23T13:55:58;8.00;99.90
22908;DHT22;11620;50.050;8.690;2024-02-23T13:58:46;8.20;99.90
22908;DHT22;11620;50.050;8.690;2024-02-23T14:01:34;8.10;99.90
22908;DHT22;11620;50.050;8.690;2024-02-23T14:04:20;7.90;99.90
22908;DHT22;11620;50.050;8.690;2024-02-23T14:07:07;7.70;99.90
22908;DHT22;11620;50.050;8.690;2024-02-23T14:09:53;7.50;99.90
22908;DHT22;11620;50.050;8.690;2024-02-23T14:12:41;7.60;99.90
22908;DHT22;11620;50.050;8.690;2024-02-23T14:15:27;7.60;99.90
22908;DHT22;11620;50.050;8.690;2024-02-23T14:18:14;7.50;99.90
22908;DHT22;11620;50.050;8.690;2024-02-23T14:21:00;7.40;99.90
22908;DHT22;11620;50.050;8.690;2024-02-23T14:23:46;7.30;99.90
22908;DHT22;11620;50.050;8.690;2024-02-23T14:26:33;7.30;99.90
22908;DHT22;11620;50.050;8.690;2024-02-23T14:29:19;7.20;99.90
22908;DHT22;11620;50.050;8.690;2024-02-23T14:32:05;7.10;99.90
22908;DHT22;11620;50.050;8.690;2024-02-23T14:34:52;7.00;99.90
22908;DHT22;11620;50.050;8.690;2024-02-23T14:37:38;7.00;99.90
22908;DHT22;11620;50.050;8.690;2024-02-23T14:40:24;7.00;99.90
22908;DHT22;11620;50.050;8.690;2024-02-23T14:43:11;7.10;99.90
22908;DHT22;11620;50.050;8.690;2024-02-23T14:45:57;7.10;99.90
22908;DHT22;11620;50.050;8.690;2024-02-23T14:48:44;6.80;99.90
22908;DHT22;11620;50.050;8.690;2024-02-23T14:51:32;6.90;99.90
22908;DHT22;11620;50.050;8.690;2024-02-23T14:54:20;6.90;99.90
22908;DHT22;11620;50.050;8.690;2024-02-23T14:57:07;6.60;99.90
22908;DHT22;11620;50.050;8.690;2024-02-23T14:59:53;6.60;99.90
22908;DHT22;11620;50.050;8.690;2024-02-23T15:02:40;6.60;99.90
22908;DHT22;11620;50.050;8.690;2024-02-23T15:05:26;6.40;99.90
22908;DHT22;11620;50.050;8.690;2024-02-23T15:08:12;6.50;99.90
22908;DHT22;11620;50.050;8.690;2024-02-23T15:10:59;6.50;99.90
22908;DHT22;11620;50.050;8.690;2024-02-23T15:13:45;6.50;99.90
22908;DHT22;11620;50.050;8.690;2024-02-23T15:16:32;6.30;99.90
22908;DHT22;11620;50.050;8.690;2024-02-23T15:19:18;6.40;99.90
22908;DHT22;11620;50.050;8.690;2024-02-23T15:22:04;6.70;99.90
22908;DHT22;11620;50.050;8.690;2024-02-23T15:24:53;6.90;99.90
22908;DHT22;11620;50.050;8.690;2024-02-23T15:27:40;7.10;99.90
22908;DHT22;11620;50.050;8.690;2024-02-23T15:30:26;7.10;99.90
22908;DHT22;11620;50.050;8.690;2024-02-23T15:33:12;7.20;99.90
22908;DHT22;11620;50.050;8.690;2024-02-23T15:36:00;7.00;99.90
22908;DHT22;11620;50.050;8.690;2024-02-23T15:38:50;7.10;99.90
22908;DHT22;11620;50.050;8.690;2024-02-23T15:41:39;7.00;99.90
22908;DHT22;11620;50.050;8.690;2024-02-23T15:44:26;6.90;99.90
22908;DHT22;11620;50.050;8.690;2024-02-23T15:47:12;7.00;99.90
22908;DHT22;11620;50.050;8.690;2024-02-23T15:49:59;6.60;99.90
22908;DHT22;11620;50.050;8.690;2024-02-23T15:52:46;6.70;99.90
22908;DHT22;11620;50.050;8.690;2024-02-23T15:55:33;6.70;99.90
22908;DHT22;11620;50.050;8.690;2024-02-23T15:58:20;6.70;99.90
22908;DHT22;11620;50.050;8.690;2024-02-23T16:01:07;6.70;99.90
22908;DHT22;11620;50.050;8.690;2024-02-23T16:03:53;6.90;99.90
22908;DHT22;11620;50.050;8.690;2024-02-23T16:06:39;6.90;99.90
22908;DHT22;11620;50.050;8.690;2024-02-23T16:09:26;6.80;99.90
22908;DHT22;11620;50.050;8.690;2024-02-23T16:12:13;6.90;99.90
22908;DHT22;11620;50.050;8.690;2024-02-23T16:14:59;6.80;99.90
22908;DHT22;11620;50.050;8.690;2024-02-23T16:17:46;6.80;99.90
22908;DHT22;11620;50.050;8.690;2024-02-23T16:20:32;6.80;99.90
22908;DHT22;11620;50.050;8.690;2024-02-23T16:23:19;6.80;99.90
22908;DHT22;11620;50.050;8.690;2024-02-23T16:26:05;6.80;99.90
22908;DHT22;11620;50.050;8.690;2024-02-23T16:28:51;6.80;99.90
22908;DHT22;11620;50.050;8.690;2024-02-23T16:31:38;6.70;99.90
22908;DHT22;11620;50.050;8.690;2024-02-23T16:34:24;6.70;99.90
22908;DHT22;11620;50.050;8.690;2024-02-23T16:37:11;6.70;99.90
22908;DHT22;11620;50.050;8.690;2024-02-23T16:39:57;6.60;99.90
22908;DHT22;11620;50.050;8.690;2024-02-23T16:42:23;6.50;99.90
22908;DHT22;11620;50.050;8.690;2024-02-23T16:44:49;6.50;99.90
22908;DHT22;11620;50.050;8.690;2024-02-23T16:47:15;6.50;99.90
22908;DHT22;11620;50.050;8.690;2024-02-23T16:49:41;6.50;99.90
22908;DHT22;11620;50.050;8.690;2024-02-23T16:52:07;6.40;99.90
22908;DHT22;11620;50.050;8.690;2024-02-23T16:54:33;6.40;99.90
22908;DHT22;11620;50.050;8.690;2024-02-23T16:56:59;6.40;99.90
22908;DHT22;11620;50.050;8.690;2024-02-23T16:59:25;6.40;99.90
22908;DHT22;11620;50.050;8.690;2024-02-23T17:01:52;6.30;99.90
22908;DHT22;11620;50.050;8.690;2024-02-23T17:04:17;6.30;99.90
22908;DHT22;11620;50.050;8.690;2024-02-23T17:06:44;6.20;99.90
22908;DHT22;11620;50.050;8.690;2024-02-23T17:09:29;6.20;99.90
22908;DHT22;11620;50.050;8.690;2024-02-23T17:12:16;6.20;99.90
22908;DHT22;11620;50.050;8.690;2024-02-23T17:15:05;6.30;99.90
22908;DHT22;11620;50.050;8.690;2024-02-23T17:17:51;6.30;99.90
22908;DHT22;11620;50.050;8.690;2024-02-23T17:20:38;6.20;99.90
22908;DHT22;11620;50.050;8.690;2024-02-23T17:23:24;6.20;99.90
22908;DHT22;11620;50.050;8.690;2024-02-23T17:26:10;6.20;99.90
22908;DHT22;11620;50.050;8.690;2024-02-23T17:28:57;6.20;99.90
22908;DHT22;11620;50.050;8.690;2024-02-23T17:31:43;6.00;99.90
22908;DHT22;11620;50.050;8.690;2024-02-23T17:34:30;6.00;99.90
22908;DHT22;11620;50.050;8.690;2024-02-23T17:37:16;6.00;99.90
22908;DHT22;11620;50.050;8.690;2024-02-23T17:40:03;5.90;99.90
22908;DHT22;11620;50.050;8.690;2024-02-23T17:42:50;5.80;99.90
22908;DHT22;11620;50.050;8.690;2024-02-23T17:45:36;5.70;99.90